Shelley, Idaho
Current Conditions -  °F | °C
As of 6:53 PM on Friday 24 Oct 2014 (Local Time) from KIDA Reporting Station
Clear Clear  
Wind Chill: 64°   Ceiling: Unl
Heat Index: 64°   Visibility: 10mi
Dew Point: 32°   Wind: 3mph
Humidity: 30%   Direction: 180°S
Pressure: 30.09"   Gusts: NA
Location:  43.38°N, 112.12°W
Report Text: KIDA 250053Z 18003KT 10SM CLR 18/00 A3009 RMK AO2 SLP163 T01780000
Loading
Personal Weather Stations






























Interactive Weather Map
Tropical Storm Tracking
New forecast layout! Learn more

10-Day Weather Forecast

Advertisements
Track Severe Weather on mobile